sensor_id;sensor_type;location;lat;lon;timestamp;P1;durP1;ratioP1;P2;durP2;ratioP2
18190;SDS011;47004;51.366;12.348;2023-08-12T00:01:57;4.00;;;2.80;;
18190;SDS011;47004;51.366;12.348;2023-08-12T00:03:59;5.40;;;2.63;;
18190;SDS011;47004;51.366;12.348;2023-08-12T00:06:01;3.83;;;2.83;;
18190;SDS011;47004;51.366;12.348;2023-08-12T00:08:05;4.53;;;2.60;;
18190;SDS011;47004;51.366;12.348;2023-08-12T00:10:07;6.53;;;2.93;;
18190;SDS011;47004;51.366;12.348;2023-08-12T00:12:10;4.40;;;2.20;;
18190;SDS011;47004;51.366;12.348;2023-08-12T00:14:11;4.87;;;2.67;;
18190;SDS011;47004;51.366;12.348;2023-08-12T00:16:13;4.83;;;2.30;;
18190;SDS011;47004;51.366;12.348;2023-08-12T00:18:17;6.43;;;2.70;;
18190;SDS011;47004;51.366;12.348;2023-08-12T00:20:18;3.50;;;2.37;;
18190;SDS011;47004;51.366;12.348;2023-08-12T00:22:21;4.70;;;2.57;;
18190;SDS011;47004;51.366;12.348;2023-08-12T00:24:23;5.87;;;2.50;;
18190;SDS011;47004;51.366;12.348;2023-08-12T00:26:26;4.73;;;2.27;;
18190;SDS011;47004;51.366;12.348;2023-08-12T00:28:28;5.30;;;2.67;;
18190;SDS011;47004;51.366;12.348;2023-08-12T00:30:30;3.93;;;2.50;;
18190;SDS011;47004;51.366;12.348;2023-08-12T00:32:32;4.33;;;2.60;;
18190;SDS011;47004;51.366;12.348;2023-08-12T00:34:35;6.53;;;2.90;;
18190;SDS011;47004;51.366;12.348;2023-08-12T00:36:37;6.07;;;2.80;;
18190;SDS011;47004;51.366;12.348;2023-08-12T00:38:39;7.17;;;2.90;;
18190;SDS011;47004;51.366;12.348;2023-08-12T00:40:41;6.17;;;2.77;;
18190;SDS011;47004;51.366;12.348;2023-08-12T00:42:43;5.63;;;2.57;;
18190;SDS011;47004;51.366;12.348;2023-08-12T00:44:47;4.17;;;2.40;;
18190;SDS011;47004;51.366;12.348;2023-08-12T00:46:47;6.63;;;2.67;;
18190;SDS011;47004;51.366;12.348;2023-08-12T00:48:50;4.03;;;2.50;;
18190;SDS011;47004;51.366;12.348;2023-08-12T00:50:54;6.67;;;2.50;;
18190;SDS011;47004;51.366;12.348;2023-08-12T00:52:56;4.53;;;2.40;;
18190;SDS011;47004;51.366;12.348;2023-08-12T00:54:59;3.57;;;2.30;;
18190;SDS011;47004;51.366;12.348;2023-08-12T00:57:01;4.70;;;2.80;;
18190;SDS011;47004;51.366;12.348;2023-08-12T00:59:04;4.10;;;2.43;;
18190;SDS011;47004;51.366;12.348;2023-08-12T01:01:08;6.53;;;2.90;;
18190;SDS011;47004;51.366;12.348;2023-08-12T01:03:11;7.60;;;3.00;;
18190;SDS011;47004;51.366;12.348;2023-08-12T01:05:13;5.43;;;2.60;;
18190;SDS011;47004;51.366;12.348;2023-08-12T01:07:16;3.87;;;2.30;;
18190;SDS011;47004;51.366;12.348;2023-08-12T01:09:18;5.10;;;2.60;;
18190;SDS011;47004;51.366;12.348;2023-08-12T01:11:21;6.93;;;2.70;;
18190;SDS011;47004;51.366;12.348;2023-08-12T01:13:37;7.97;;;2.50;;
18190;SDS011;47004;51.366;12.348;2023-08-12T01:15:47;4.73;;;2.63;;
18190;SDS011;47004;51.366;12.348;2023-08-12T01:17:54;6.60;;;2.70;;
18190;SDS011;47004;51.366;12.348;2023-08-12T01:19:56;5.80;;;2.70;;
18190;SDS011;47004;51.366;12.348;2023-08-12T01:21:59;8.80;;;3.10;;
18190;SDS011;47004;51.366;12.348;2023-08-12T01:24:03;5.50;;;3.20;;
18190;SDS011;47004;51.366;12.348;2023-08-12T01:26:05;5.70;;;2.83;;
18190;SDS011;47004;51.366;12.348;2023-08-12T01:28:07;4.67;;;2.50;;
18190;SDS011;47004;51.366;12.348;2023-08-12T01:30:09;7.27;;;3.10;;
18190;SDS011;47004;51.366;12.348;2023-08-12T01:32:14;4.53;;;2.50;;
18190;SDS011;47004;51.366;12.348;2023-08-12T01:34:23;6.77;;;2.60;;
18190;SDS011;47004;51.366;12.348;2023-08-12T01:36:30;4.07;;;2.53;;
18190;SDS011;47004;51.366;12.348;2023-08-12T01:38:36;4.80;;;2.67;;
18190;SDS011;47004;51.366;12.348;2023-08-12T01:40:43;4.83;;;2.63;;
18190;SDS011;47004;51.366;12.348;2023-08-12T01:42:46;4.27;;;2.80;;
18190;SDS011;47004;51.366;12.348;2023-08-12T01:44:49;6.93;;;3.20;;
18190;SDS011;47004;51.366;12.348;2023-08-12T01:46:52;5.50;;;2.97;;
18190;SDS011;47004;51.366;12.348;2023-08-12T01:48:54;6.53;;;3.10;;
18190;SDS011;47004;51.366;12.348;2023-08-12T01:50:56;6.53;;;2.90;;
18190;SDS011;47004;51.366;12.348;2023-08-12T01:52:58;12.27;;;3.23;;
18190;SDS011;47004;51.366;12.348;2023-08-12T01:55:00;9.57;;;3.27;;
18190;SDS011;47004;51.366;12.348;2023-08-12T01:57:04;5.07;;;2.60;;
18190;SDS011;47004;51.366;12.348;2023-08-12T01:59:09;4.73;;;3.00;;
18190;SDS011;47004;51.366;12.348;2023-08-12T02:01:10;5.97;;;2.90;;
18190;SDS011;47004;51.366;12.348;2023-08-12T02:03:11;4.73;;;2.80;;
18190;SDS011;47004;51.366;12.348;2023-08-12T02:05:13;7.43;;;2.80;;
18190;SDS011;47004;51.366;12.348;2023-08-12T02:07:16;5.37;;;2.90;;
18190;SDS011;47004;51.366;12.348;2023-08-12T02:09:17;4.27;;;3.17;;
18190;SDS011;47004;51.366;12.348;2023-08-12T02:11:18;4.20;;;2.97;;
18190;SDS011;47004;51.366;12.348;2023-08-12T02:13:22;8.07;;;3.33;;
18190;SDS011;47004;51.366;12.348;2023-08-12T02:15:23;6.00;;;3.17;;
18190;SDS011;47004;51.366;12.348;2023-08-12T02:17:25;5.47;;;2.87;;
18190;SDS011;47004;51.366;12.348;2023-08-12T02:19:27;4.87;;;3.03;;
18190;SDS011;47004;51.366;12.348;2023-08-12T02:21:29;5.10;;;2.97;;
18190;SDS011;47004;51.366;12.348;2023-08-12T02:23:31;4.27;;;2.80;;
18190;SDS011;47004;51.366;12.348;2023-08-12T02:25:33;6.37;;;3.00;;
18190;SDS011;47004;51.366;12.348;2023-08-12T02:27:35;5.33;;;3.13;;
18190;SDS011;47004;51.366;12.348;2023-08-12T02:29:39;6.50;;;2.97;;
18190;SDS011;47004;51.366;12.348;2023-08-12T02:31:40;4.27;;;3.10;;
18190;SDS011;47004;51.366;12.348;2023-08-12T02:33:42;5.57;;;3.17;;
18190;SDS011;47004;51.366;12.348;2023-08-12T02:35:43;4.87;;;2.63;;
18190;SDS011;47004;51.366;12.348;2023-08-12T02:37:45;4.33;;;2.77;;
18190;SDS011;47004;51.366;12.348;2023-08-12T02:39:49;5.33;;;3.33;;
18190;SDS011;47004;51.366;12.348;2023-08-12T02:41:51;8.30;;;3.50;;
18190;SDS011;47004;51.366;12.348;2023-08-12T02:43:53;6.33;;;3.10;;
18190;SDS011;47004;51.366;12.348;2023-08-12T02:45:56;5.07;;;2.97;;
18190;SDS011;47004;51.366;12.348;2023-08-12T02:47:57;5.67;;;3.47;;
18190;SDS011;47004;51.366;12.348;2023-08-12T02:49:59;4.70;;;2.80;;
18190;SDS011;47004;51.366;12.348;2023-08-12T02:52:00;4.77;;;3.20;;
18190;SDS011;47004;51.366;12.348;2023-08-12T02:54:02;4.63;;;2.90;;
18190;SDS011;47004;51.366;12.348;2023-08-12T02:56:04;6.40;;;3.20;;
18190;SDS011;47004;51.366;12.348;2023-08-12T02:58:06;5.00;;;3.37;;
18190;SDS011;47004;51.366;12.348;2023-08-12T03:00:09;5.70;;;3.00;;
18190;SDS011;47004;51.366;12.348;2023-08-12T03:02:13;7.10;;;3.20;;
18190;SDS011;47004;51.366;12.348;2023-08-12T03:04:16;5.10;;;3.50;;
18190;SDS011;47004;51.366;12.348;2023-08-12T03:06:18;4.77;;;3.00;;
18190;SDS011;47004;51.366;12.348;2023-08-12T03:08:20;6.47;;;3.27;;
18190;SDS011;47004;51.366;12.348;2023-08-12T03:10:21;8.13;;;3.60;;
18190;SDS011;47004;51.366;12.348;2023-08-12T03:12:22;7.93;;;3.03;;
18190;SDS011;47004;51.366;12.348;2023-08-12T03:14:24;5.13;;;2.80;;
18190;SDS011;47004;51.366;12.348;2023-08-12T03:16:29;5.43;;;3.13;;
18190;SDS011;47004;51.366;12.348;2023-08-12T03:18:32;5.93;;;3.20;;
18190;SDS011;47004;51.366;12.348;2023-08-12T03:20:33;3.80;;;2.80;;
18190;SDS011;47004;51.366;12.348;2023-08-12T03:22:35;4.30;;;2.80;;
18190;SDS011;47004;51.366;12.348;2023-08-12T03:24:37;4.90;;;3.07;;
18190;SDS011;47004;51.366;12.348;2023-08-12T03:26:39;5.27;;;3.60;;
18190;SDS011;47004;51.366;12.348;2023-08-12T03:28:41;5.80;;;3.23;;
18190;SDS011;47004;51.366;12.348;2023-08-12T03:30:49;3.80;;;2.97;;
18190;SDS011;47004;51.366;12.348;2023-08-12T03:32:51;6.27;;;2.90;;
18190;SDS011;47004;51.366;12.348;2023-08-12T03:34:55;4.63;;;3.20;;
18190;SDS011;47004;51.366;12.348;2023-08-12T03:36:57;4.30;;;3.10;;
18190;SDS011;47004;51.366;12.348;2023-08-12T03:38:59;7.33;;;3.00;;
18190;SDS011;47004;51.366;12.348;2023-08-12T03:41:00;5.33;;;3.60;;
18190;SDS011;47004;51.366;12.348;2023-08-12T03:43:02;4.47;;;3.10;;
18190;SDS011;47004;51.366;12.348;2023-08-12T03:45:05;4.60;;;3.00;;
18190;SDS011;47004;51.366;12.348;2023-08-12T03:47:07;5.43;;;3.50;;
18190;SDS011;47004;51.366;12.348;2023-08-12T03:49:09;5.23;;;3.20;;
18190;SDS011;47004;51.366;12.348;2023-08-12T03:51:15;4.13;;;3.03;;
18190;SDS011;47004;51.366;12.348;2023-08-12T03:53:19;4.33;;;3.20;;
18190;SDS011;47004;51.366;12.348;2023-08-12T03:55:21;8.53;;;3.40;;
18190;SDS011;47004;51.366;12.348;2023-08-12T03:57:23;5.47;;;3.07;;
18190;SDS011;47004;51.366;12.348;2023-08-12T03:59:25;5.73;;;3.10;;
18190;SDS011;47004;51.366;12.348;2023-08-12T04:01:27;4.30;;;3.40;;
18190;SDS011;47004;51.366;12.348;2023-08-12T04:03:28;4.73;;;3.20;;
18190;SDS011;47004;51.366;12.348;2023-08-12T04:05:30;4.40;;;3.17;;
18190;SDS011;47004;51.366;12.348;2023-08-12T04:07:32;4.00;;;3.30;;
18190;SDS011;47004;51.366;12.348;2023-08-12T04:09:34;4.93;;;3.60;;
18190;SDS011;47004;51.366;12.348;2023-08-12T04:11:36;4.03;;;3.27;;
18190;SDS011;47004;51.366;12.348;2023-08-12T04:13:38;4.63;;;3.47;;
18190;SDS011;47004;51.366;12.348;2023-08-12T04:15:39;4.40;;;3.40;;
18190;SDS011;47004;51.366;12.348;2023-08-12T04:17:41;4.27;;;3.10;;
18190;SDS011;47004;51.366;12.348;2023-08-12T04:19:43;5.47;;;3.33;;
18190;SDS011;47004;51.366;12.348;2023-08-12T04:21:45;3.60;;;3.00;;
18190;SDS011;47004;51.366;12.348;2023-08-12T04:23:48;3.87;;;3.00;;
18190;SDS011;47004;51.366;12.348;2023-08-12T04:25:52;4.10;;;3.17;;
18190;SDS011;47004;51.366;12.348;2023-08-12T04:27:54;5.10;;;3.33;;
18190;SDS011;47004;51.366;12.348;2023-08-12T04:29:56;4.40;;;3.40;;
18190;SDS011;47004;51.366;12.348;2023-08-12T04:31:58;4.30;;;3.10;;
18190;SDS011;47004;51.366;12.348;2023-08-12T04:34:00;4.43;;;3.40;;
18190;SDS011;47004;51.366;12.348;2023-08-12T04:36:01;6.83;;;3.47;;
18190;SDS011;47004;51.366;12.348;2023-08-12T04:38:03;5.40;;;3.70;;
18190;SDS011;47004;51.366;12.348;2023-08-12T04:40:07;8.47;;;3.50;;
18190;SDS011;47004;51.366;12.348;2023-08-12T04:42:09;4.83;;;3.27;;
18190;SDS011;47004;51.366;12.348;2023-08-12T04:44:11;4.60;;;3.27;;
18190;SDS011;47004;51.366;12.348;2023-08-12T04:46:13;4.63;;;3.33;;
18190;SDS011;47004;51.366;12.348;2023-08-12T04:48:15;5.10;;;3.13;;
18190;SDS011;47004;51.366;12.348;2023-08-12T04:50:16;6.67;;;3.67;;
18190;SDS011;47004;51.366;12.348;2023-08-12T04:52:18;4.80;;;3.50;;
18190;SDS011;47004;51.366;12.348;2023-08-12T04:54:20;5.17;;;3.53;;
18190;SDS011;47004;51.366;12.348;2023-08-12T04:56:24;5.80;;;3.37;;
18190;SDS011;47004;51.366;12.348;2023-08-12T04:58:29;7.70;;;3.43;;
18190;SDS011;47004;51.366;12.348;2023-08-12T05:00:30;6.77;;;3.17;;
18190;SDS011;47004;51.366;12.348;2023-08-12T05:02:33;6.37;;;3.00;;
18190;SDS011;47004;51.366;12.348;2023-08-12T05:04:35;5.33;;;3.23;;
18190;SDS011;47004;51.366;12.348;2023-08-12T05:06:36;4.23;;;2.97;;
18190;SDS011;47004;51.366;12.348;2023-08-12T05:08:38;4.17;;;3.00;;
18190;SDS011;47004;51.366;12.348;2023-08-12T05:10:40;4.00;;;3.00;;
18190;SDS011;47004;51.366;12.348;2023-08-12T05:12:44;5.03;;;3.20;;
18190;SDS011;47004;51.366;12.348;2023-08-12T05:14:46;4.70;;;3.07;;
18190;SDS011;47004;51.366;12.348;2023-08-12T05:16:48;4.00;;;3.17;;
18190;SDS011;47004;51.366;12.348;2023-08-12T05:18:50;5.53;;;2.83;;
18190;SDS011;47004;51.366;12.348;2023-08-12T05:20:52;3.90;;;2.90;;
18190;SDS011;47004;51.366;12.348;2023-08-12T05:22:54;5.33;;;3.43;;
18190;SDS011;47004;51.366;12.348;2023-08-12T05:24:56;4.00;;;3.00;;
18190;SDS011;47004;51.366;12.348;2023-08-12T05:26:58;4.73;;;3.47;;
18190;SDS011;47004;51.366;12.348;2023-08-12T05:29:01;7.27;;;3.60;;
18190;SDS011;47004;51.366;12.348;2023-08-12T05:31:03;5.00;;;2.90;;
18190;SDS011;47004;51.366;12.348;2023-08-12T05:33:05;3.73;;;3.03;;
18190;SDS011;47004;51.366;12.348;2023-08-12T05:35:07;6.80;;;3.20;;
18190;SDS011;47004;51.366;12.348;2023-08-12T05:37:09;3.97;;;2.97;;
18190;SDS011;47004;51.366;12.348;2023-08-12T05:39:11;5.17;;;2.93;;
18190;SDS011;47004;51.366;12.348;2023-08-12T05:41:15;4.97;;;3.20;;
18190;SDS011;47004;51.366;12.348;2023-08-12T05:43:17;3.67;;;3.23;;
18190;SDS011;47004;51.366;12.348;2023-08-12T05:45:19;5.03;;;3.00;;
18190;SDS011;47004;51.366;12.348;2023-08-12T05:47:21;4.13;;;3.10;;
18190;SDS011;47004;51.366;12.348;2023-08-12T05:49:26;3.93;;;2.60;;
18190;SDS011;47004;51.366;12.348;2023-08-12T05:51:28;5.17;;;3.27;;
18190;SDS011;47004;51.366;12.348;2023-08-12T05:53:30;5.93;;;3.30;;
18190;SDS011;47004;51.366;12.348;2023-08-12T05:55:32;4.23;;;3.27;;
18190;SDS011;47004;51.366;12.348;2023-08-12T05:57:35;3.47;;;2.90;;
18190;SDS011;47004;51.366;12.348;2023-08-12T05:59:37;5.00;;;2.57;;
18190;SDS011;47004;51.366;12.348;2023-08-12T06:01:40;5.67;;;2.97;;
18190;SDS011;47004;51.366;12.348;2023-08-12T06:03:42;5.70;;;3.50;;
18190;SDS011;47004;51.366;12.348;2023-08-12T06:05:45;6.50;;;3.53;;
18190;SDS011;47004;51.366;12.348;2023-08-12T06:07:47;3.93;;;3.10;;
18190;SDS011;47004;51.366;12.348;2023-08-12T06:09:49;6.77;;;3.27;;
18190;SDS011;47004;51.366;12.348;2023-08-12T06:11:51;3.80;;;2.80;;
18190;SDS011;47004;51.366;12.348;2023-08-12T06:13:53;5.00;;;2.93;;
18190;SDS011;47004;51.366;12.348;2023-08-12T06:15:55;3.77;;;2.80;;
18190;SDS011;47004;51.366;12.348;2023-08-12T06:17:58;4.83;;;2.73;;
18190;SDS011;47004;51.366;12.348;2023-08-12T06:20:01;3.93;;;2.40;;
18190;SDS011;47004;51.366;12.348;2023-08-12T06:22:03;3.97;;;3.07;;
18190;SDS011;47004;51.366;12.348;2023-08-12T06:24:05;5.63;;;3.40;;
18190;SDS011;47004;51.366;12.348;2023-08-12T06:26:07;4.37;;;2.73;;
18190;SDS011;47004;51.366;12.348;2023-08-12T06:28:09;4.00;;;3.00;;
18190;SDS011;47004;51.366;12.348;2023-08-12T06:30:13;3.50;;;2.63;;
18190;SDS011;47004;51.366;12.348;2023-08-12T06:32:15;5.20;;;2.73;;
18190;SDS011;47004;51.366;12.348;2023-08-12T06:34:19;3.47;;;2.80;;
18190;SDS011;47004;51.366;12.348;2023-08-12T06:36:21;6.23;;;2.97;;
18190;SDS011;47004;51.366;12.348;2023-08-12T06:38:23;3.40;;;2.37;;
18190;SDS011;47004;51.366;12.348;2023-08-12T06:40:23;4.33;;;2.90;;
18190;SDS011;47004;51.366;12.348;2023-08-12T06:42:26;6.07;;;2.93;;
18190;SDS011;47004;51.366;12.348;2023-08-12T06:44:29;3.80;;;2.80;;
18190;SDS011;47004;51.366;12.348;2023-08-12T06:46:31;2.93;;;2.63;;
18190;SDS011;47004;51.366;12.348;2023-08-12T06:48:32;3.10;;;2.70;;
18190;SDS011;47004;51.366;12.348;2023-08-12T06:50:36;8.80;;;2.90;;
18190;SDS011;47004;51.366;12.348;2023-08-12T06:52:38;4.47;;;2.70;;
18190;SDS011;47004;51.366;12.348;2023-08-12T06:54:39;4.23;;;2.67;;
18190;SDS011;47004;51.366;12.348;2023-08-12T06:56:41;4.17;;;3.10;;
18190;SDS011;47004;51.366;12.348;2023-08-12T06:58:43;2.80;;;2.50;;
18190;SDS011;47004;51.366;12.348;2023-08-12T07:00:45;4.40;;;2.57;;
18190;SDS011;47004;51.366;12.348;2023-08-12T07:02:47;5.93;;;2.87;;
18190;SDS011;47004;51.366;12.348;2023-08-12T07:04:49;3.73;;;2.50;;
18190;SDS011;47004;51.366;12.348;2023-08-12T07:06:52;3.30;;;2.67;;
18190;SDS011;47004;51.366;12.348;2023-08-12T07:08:54;3.03;;;2.50;;
18190;SDS011;47004;51.366;12.348;2023-08-12T07:10:56;4.57;;;2.80;;
18190;SDS011;47004;51.366;12.348;2023-08-12T07:12:58;3.00;;;2.50;;
18190;SDS011;47004;51.366;12.348;2023-08-12T07:15:00;5.50;;;2.80;;
18190;SDS011;47004;51.366;12.348;2023-08-12T07:17:02;4.60;;;2.80;;
18190;SDS011;47004;51.366;12.348;2023-08-12T07:19:04;4.23;;;2.70;;
18190;SDS011;47004;51.366;12.348;2023-08-12T07:21:06;3.17;;;2.50;;
18190;SDS011;47004;51.366;12.348;2023-08-12T07:23:09;4.40;;;2.70;;
18190;SDS011;47004;51.366;12.348;2023-08-12T07:25:11;3.17;;;2.50;;
18190;SDS011;47004;51.366;12.348;2023-08-12T07:27:13;3.73;;;2.93;;
18190;SDS011;47004;51.366;12.348;2023-08-12T07:29:15;5.40;;;2.87;;
18190;SDS011;47004;51.366;12.348;2023-08-12T07:31:17;2.77;;;2.23;;
18190;SDS011;47004;51.366;12.348;2023-08-12T07:33:19;3.50;;;2.87;;
18190;SDS011;47004;51.366;12.348;2023-08-12T07:35:21;4.57;;;2.70;;
18190;SDS011;47004;51.366;12.348;2023-08-12T07:37:25;6.73;;;2.70;;
18190;SDS011;47004;51.366;12.348;2023-08-12T07:39:27;5.57;;;2.57;;
18190;SDS011;47004;51.366;12.348;2023-08-12T07:41:29;5.07;;;2.50;;
18190;SDS011;47004;51.366;12.348;2023-08-12T07:43:31;3.50;;;2.80;;
18190;SDS011;47004;51.366;12.348;2023-08-12T07:45:33;2.97;;;2.60;;
18190;SDS011;47004;51.366;12.348;2023-08-12T07:47:35;5.33;;;2.70;;
18190;SDS011;47004;51.366;12.348;2023-08-12T07:49:37;5.87;;;2.80;;
18190;SDS011;47004;51.366;12.348;2023-08-12T07:51:39;3.70;;;2.47;;
18190;SDS011;47004;51.366;12.348;2023-08-12T07:53:41;5.37;;;2.47;;
18190;SDS011;47004;51.366;12.348;2023-08-12T07:55:44;3.27;;;2.60;;
18190;SDS011;47004;51.366;12.348;2023-08-12T07:57:46;3.20;;;2.70;;
18190;SDS011;47004;51.366;12.348;2023-08-12T07:59:48;8.77;;;2.73;;
18190;SDS011;47004;51.366;12.348;2023-08-12T08:01:50;3.70;;;2.60;;
18190;SDS011;47004;51.366;12.348;2023-08-12T08:03:52;4.40;;;2.80;;
18190;SDS011;47004;51.366;12.348;2023-08-12T08:05:55;2.70;;;2.33;;
18190;SDS011;47004;51.366;12.348;2023-08-12T08:08:00;6.83;;;2.80;;
18190;SDS011;47004;51.366;12.348;2023-08-12T08:10:01;4.70;;;2.83;;
18190;SDS011;47004;51.366;12.348;2023-08-12T08:12:04;3.00;;;2.60;;
18190;SDS011;47004;51.366;12.348;2023-08-12T08:14:07;5.53;;;2.67;;
18190;SDS011;47004;51.366;12.348;2023-08-12T08:16:09;4.63;;;2.50;;
18190;SDS011;47004;51.366;12.348;2023-08-12T08:18:11;3.63;;;2.40;;
18190;SDS011;47004;51.366;12.348;2023-08-12T08:20:13;3.93;;;2.53;;
18190;SDS011;47004;51.366;12.348;2023-08-12T08:22:14;5.13;;;2.87;;
18190;SDS011;47004;51.366;12.348;2023-08-12T08:24:18;5.47;;;2.90;;
18190;SDS011;47004;51.366;12.348;2023-08-12T08:26:19;3.47;;;2.30;;
18190;SDS011;47004;51.366;12.348;2023-08-12T08:28:23;3.27;;;2.33;;
18190;SDS011;47004;51.366;12.348;2023-08-12T08:30:25;3.63;;;2.47;;
18190;SDS011;47004;51.366;12.348;2023-08-12T08:32:27;2.93;;;2.33;;
18190;SDS011;47004;51.366;12.348;2023-08-12T08:34:28;4.00;;;2.40;;
18190;SDS011;47004;51.366;12.348;2023-08-12T08:36:30;5.47;;;2.70;;
18190;SDS011;47004;51.366;12.348;2023-08-12T08:38:32;5.30;;;2.70;;
18190;SDS011;47004;51.366;12.348;2023-08-12T08:40:34;5.10;;;2.63;;
18190;SDS011;47004;51.366;12.348;2023-08-12T08:42:37;4.00;;;2.93;;
18190;SDS011;47004;51.366;12.348;2023-08-12T08:44:42;3.40;;;2.40;;
18190;SDS011;47004;51.366;12.348;2023-08-12T08:46:45;3.40;;;2.23;;
18190;SDS011;47004;51.366;12.348;2023-08-12T08:48:47;3.67;;;2.50;;
18190;SDS011;47004;51.366;12.348;2023-08-12T08:50:50;3.50;;;2.50;;
18190;SDS011;47004;51.366;12.348;2023-08-12T08:52:53;5.93;;;2.63;;
18190;SDS011;47004;51.366;12.348;2023-08-12T08:54:59;3.50;;;2.60;;
18190;SDS011;47004;51.366;12.348;2023-08-12T08:57:02;2.87;;;2.20;;
18190;SDS011;47004;51.366;12.348;2023-08-12T08:59:06;5.83;;;2.30;;
18190;SDS011;47004;51.366;12.348;2023-08-12T09:01:12;3.27;;;2.60;;
18190;SDS011;47004;51.366;12.348;2023-08-12T09:03:20;5.10;;;2.23;;
18190;SDS011;47004;51.366;12.348;2023-08-12T09:05:23;3.90;;;2.67;;
18190;SDS011;47004;51.366;12.348;2023-08-12T09:07:31;3.37;;;2.43;;
18190;SDS011;47004;51.366;12.348;2023-08-12T09:09:34;3.53;;;2.37;;
18190;SDS011;47004;51.366;12.348;2023-08-12T09:11:38;4.07;;;2.20;;
18190;SDS011;47004;51.366;12.348;2023-08-12T09:13:40;2.60;;;2.23;;
18190;SDS011;47004;51.366;12.348;2023-08-12T09:15:46;2.60;;;2.20;;
18190;SDS011;47004;51.366;12.348;2023-08-12T09:17:51;5.33;;;3.00;;
18190;SDS011;47004;51.366;12.348;2023-08-12T09:19:54;6.70;;;3.50;;
18190;SDS011;47004;51.366;12.348;2023-08-12T09:21:56;3.87;;;2.50;;
18190;SDS011;47004;51.366;12.348;2023-08-12T09:24:00;3.80;;;2.23;;
18190;SDS011;47004;51.366;12.348;2023-08-12T09:26:10;2.40;;;2.20;;
18190;SDS011;47004;51.366;12.348;2023-08-12T09:28:17;3.00;;;2.37;;
18190;SDS011;47004;51.366;12.348;2023-08-12T09:30:20;3.33;;;2.50;;
18190;SDS011;47004;51.366;12.348;2023-08-12T09:32:21;3.70;;;2.40;;
18190;SDS011;47004;51.366;12.348;2023-08-12T09:34:25;4.57;;;2.30;;
18190;SDS011;47004;51.366;12.348;2023-08-12T09:36:28;4.90;;;2.60;;
18190;SDS011;47004;51.366;12.348;2023-08-12T09:38:31;5.70;;;2.93;;
18190;SDS011;47004;51.366;12.348;2023-08-12T09:40:34;2.53;;;2.10;;
18190;SDS011;47004;51.366;12.348;2023-08-12T09:42:42;2.80;;;2.47;;
18190;SDS011;47004;51.366;12.348;2023-08-12T09:44:46;4.40;;;2.70;;
18190;SDS011;47004;51.366;12.348;2023-08-12T09:46:56;3.30;;;2.33;;
18190;SDS011;47004;51.366;12.348;2023-08-12T09:48:59;4.00;;;2.50;;
18190;SDS011;47004;51.366;12.348;2023-08-12T09:51:02;3.60;;;2.40;;
18190;SDS011;47004;51.366;12.348;2023-08-12T09:53:04;3.30;;;2.37;;
18190;SDS011;47004;51.366;12.348;2023-08-12T09:55:07;4.23;;;2.50;;
18190;SDS011;47004;51.366;12.348;2023-08-12T09:57:11;3.73;;;2.20;;
18190;SDS011;47004;51.366;12.348;2023-08-12T09:59:15;2.40;;;2.20;;
18190;SDS011;47004;51.366;12.348;2023-08-12T10:01:20;2.90;;;2.30;;
18190;SDS011;47004;51.366;12.348;2023-08-12T10:03:22;7.43;;;2.90;;
18190;SDS011;47004;51.366;12.348;2023-08-12T10:05:27;3.23;;;2.70;;
18190;SDS011;47004;51.366;12.348;2023-08-12T10:07:31;6.27;;;2.67;;
18190;SDS011;47004;51.366;12.348;2023-08-12T10:09:33;4.63;;;3.10;;
18190;SDS011;47004;51.366;12.348;2023-08-12T10:11:36;7.20;;;3.00;;
18190;SDS011;47004;51.366;12.348;2023-08-12T10:13:39;4.33;;;2.53;;
18190;SDS011;47004;51.366;12.348;2023-08-12T10:15:45;4.53;;;2.97;;
18190;SDS011;47004;51.366;12.348;2023-08-12T10:17:47;4.77;;;2.70;;
18190;SDS011;47004;51.366;12.348;2023-08-12T10:19:54;4.37;;;2.80;;
18190;SDS011;47004;51.366;12.348;2023-08-12T10:21:58;5.30;;;2.23;;
18190;SDS011;47004;51.366;12.348;2023-08-12T10:24:01;3.83;;;2.30;;
18190;SDS011;47004;51.366;12.348;2023-08-12T10:26:06;3.57;;;3.03;;
18190;SDS011;47004;51.366;12.348;2023-08-12T10:28:08;2.93;;;2.50;;
18190;SDS011;47004;51.366;12.348;2023-08-12T10:30:10;3.47;;;2.63;;
18190;SDS011;47004;51.366;12.348;2023-08-12T10:32:17;3.93;;;2.43;;
18190;SDS011;47004;51.366;12.348;2023-08-12T10:34:19;4.13;;;2.40;;
18190;SDS011;47004;51.366;12.348;2023-08-12T10:36:22;5.00;;;2.70;;
18190;SDS011;47004;51.366;12.348;2023-08-12T10:38:24;5.63;;;2.80;;
18190;SDS011;47004;51.366;12.348;2023-08-12T10:40:30;6.80;;;2.77;;
18190;SDS011;47004;51.366;12.348;2023-08-12T10:42:41;4.10;;;2.87;;
18190;SDS011;47004;51.366;12.348;2023-08-12T10:44:49;3.77;;;2.70;;
18190;SDS011;47004;51.366;12.348;2023-08-12T10:46:52;3.33;;;2.53;;
18190;SDS011;47004;51.366;12.348;2023-08-12T10:48:59;5.40;;;3.83;;
18190;SDS011;47004;51.366;12.348;2023-08-12T10:51:04;5.40;;;3.53;;
18190;SDS011;47004;51.366;12.348;2023-08-12T10:53:20;6.03;;;3.47;;
18190;SDS011;47004;51.366;12.348;2023-08-12T10:55:30;3.37;;;2.80;;
18190;SDS011;47004;51.366;12.348;2023-08-12T10:57:40;4.53;;;2.67;;
18190;SDS011;47004;51.366;12.348;2023-08-12T10:59:52;5.37;;;3.27;;
18190;SDS011;47004;51.366;12.348;2023-08-12T11:02:05;5.77;;;3.87;;
18190;SDS011;47004;51.366;12.348;2023-08-12T11:04:16;4.63;;;3.57;;
18190;SDS011;47004;51.366;12.348;2023-08-12T11:06:19;2.80;;;2.60;;
18190;SDS011;47004;51.366;12.348;2023-08-12T11:08:23;4.57;;;3.13;;
18190;SDS011;47004;51.366;12.348;2023-08-12T11:10:31;4.00;;;3.03;;
18190;SDS011;47004;51.366;12.348;2023-08-12T11:12:34;4.93;;;3.40;;
18190;SDS011;47004;51.366;12.348;2023-08-12T11:14:46;4.03;;;3.17;;
18190;SDS011;47004;51.366;12.348;2023-08-12T11:16:49;3.97;;;3.10;;
18190;SDS011;47004;51.366;12.348;2023-08-12T11:18:55;3.27;;;2.97;;
18190;SDS011;47004;51.366;12.348;2023-08-12T11:20:58;3.50;;;3.00;;
18190;SDS011;47004;51.366;12.348;2023-08-12T11:23:03;3.67;;;2.73;;
18190;SDS011;47004;51.366;12.348;2023-08-12T11:25:06;4.53;;;3.00;;
18190;SDS011;47004;51.366;12.348;2023-08-12T11:27:10;6.33;;;2.90;;
18190;SDS011;47004;51.366;12.348;2023-08-12T11:29:15;3.73;;;2.90;;
18190;SDS011;47004;51.366;12.348;2023-08-12T11:31:18;4.17;;;2.90;;
18190;SDS011;47004;51.366;12.348;2023-08-12T11:33:20;3.53;;;2.80;;
18190;SDS011;47004;51.366;12.348;2023-08-12T11:35:23;4.13;;;3.00;;
18190;SDS011;47004;51.366;12.348;2023-08-12T11:37:25;7.40;;;3.03;;
18190;SDS011;47004;51.366;12.348;2023-08-12T11:39:27;4.20;;;2.80;;
18190;SDS011;47004;51.366;12.348;2023-08-12T11:41:33;4.20;;;2.80;;
18190;SDS011;47004;51.366;12.348;2023-08-12T11:43:36;4.50;;;3.10;;
18190;SDS011;47004;51.366;12.348;2023-08-12T11:45:42;7.23;;;3.63;;
18190;SDS011;47004;51.366;12.348;2023-08-12T11:47:44;4.63;;;3.43;;
18190;SDS011;47004;51.366;12.348;2023-08-12T11:49:52;4.87;;;3.33;;
18190;SDS011;47004;51.366;12.348;2023-08-12T11:51:54;4.97;;;3.00;;
18190;SDS011;47004;51.366;12.348;2023-08-12T11:53:56;2.60;;;2.20;;
18190;SDS011;47004;51.366;12.348;2023-08-12T11:55:58;3.08;;;2.30;;
18190;SDS011;47004;51.366;12.348;2023-08-12T11:58:00;3.15;;;2.38;;
18190;SDS011;47004;51.366;12.348;2023-08-12T12:00:07;2.75;;;2.38;;
18190;SDS011;47004;51.366;12.348;2023-08-12T12:02:13;3.17;;;2.35;;
18190;SDS011;47004;51.366;12.348;2023-08-12T12:04:16;2.67;;;2.05;;
18190;SDS011;47004;51.366;12.348;2023-08-12T12:06:27;4.13;;;2.17;;
18190;SDS011;47004;51.366;12.348;2023-08-12T12:08:31;4.75;;;1.90;;
18190;SDS011;47004;51.366;12.348;2023-08-12T12:10:33;2.45;;;2.10;;